Time;durP1;ratioP1;P1;durP2;ratioP2;P2;SDS_P1;SDS_P2;PMS_P1;PMS_P2;Temp;Humidity;BMP_temperature;BMP_pressure;BME280_temperature;BME280_humidity;BME280_pressure;Samples;Min_cycle;Max_cycle;Signal;HPM_P1;HPM_P2
2022/09/03 00:00:06;;;;;;;4.99;2.93;;;;;;;16.40;38.13;101390.08;441779;120;923216;-71
2022/09/03 00:01:15;;;;;;;3.56;3.25;;;;;;;16.39;38.15;101386.48;468540;112;923376;-71
2022/09/03 00:02:26;;;;;;;4.12;2.83;;;;;;;16.39;38.15;101402.16;460810;114;922870;-71
2022/09/03 00:03:32;;;;;;;4.43;3.35;;;;;;;16.39;38.14;101396.66;462973;114;923069;-71
2022/09/03 00:04:43;;;;;;;4.58;3.48;;;;;;;16.41;38.11;101400.88;463206;113;922623;-71
2022/09/03 00:05:58;;;;;;;4.66;2.98;;;;;;;16.42;38.08;101407.22;463413;113;923293;-71
2022/09/03 00:07:05;;;;;;;3.73;3.39;;;;;;;16.43;38.06;101404.21;459383;114;922719;-72
2022/09/03 00:08:21;;;;;;;5.08;4.15;;;;;;;16.45;38.02;101403.98;463615;114;922525;-71
2022/09/03 00:09:28;;;;;;;4.87;4.19;;;;;;;16.45;37.99;101402.08;462196;114;923068;-71
2022/09/03 00:10:54;;;;;;;5.21;4.49;;;;;;;16.47;37.97;101410.95;463702;114;922593;-71
2022/09/03 00:12:07;;;;;;;4.77;4.13;;;;;;;16.47;38.03;101410.11;461723;115;923034;-71
2022/09/03 00:13:16;;;;;;;4.68;4.28;;;;;;;16.46;37.97;101409.27;461621;114;922487;-71
2022/09/03 00:14:26;;;;;;;6.29;4.36;;;;;;;16.45;38.03;101409.48;461155;114;922540;-72
2022/09/03 00:15:32;;;;;;;5.09;4.58;;;;;;;16.44;38.05;101405.89;464611;113;922857;-72
2022/09/03 00:16:54;;;;;;;4.94;4.51;;;;;;;16.44;38.03;101407.80;463549;114;923036;-71
2022/09/03 00:18:03;;;;;;;6.04;4.48;;;;;;;16.44;38.01;101399.55;465723;113;923041;-71
2022/09/03 00:19:06;;;;;;;5.55;4.91;;;;;;;16.45;37.99;101403.98;471377;112;922711;-72
2022/09/03 00:20:20;;;;;;;4.66;4.15;;;;;;;16.44;38.02;101405.05;462473;114;922957;-71
2022/09/03 00:21:42;;;;;;;4.36;3.91;;;;;;;16.43;38.01;101400.64;463613;114;922599;-72
2022/09/03 00:22:49;;;;;;;5.48;4.13;;;;;;;16.42;38.07;101402.55;455655;114;923082;-72
2022/09/03 00:23:53;;;;;;;4.71;4.24;;;;;;;16.40;38.05;101401.94;461964;114;922985;-72
2022/09/03 00:24:59;;;;;;;7.20;4.82;;;;;;;16.39;38.11;101403.00;468139;113;922531;-70
2022/09/03 00:26:12;;;;;;;5.21;4.64;;;;;;;16.38;38.10;101408.73;468068;113;922591;-71
2022/09/03 00:27:19;;;;;;;8.33;4.50;;;;;;;16.37;38.14;101404.33;468030;113;922682;-71
2022/09/03 00:28:35;;;;;;;5.18;4.68;;;;;;;16.36;38.23;101392.47;467992;113;923029;-70
2022/09/03 00:29:47;;;;;;;5.96;5.27;;;;;;;16.36;38.15;101394.38;466264;113;923255;-71
2022/09/03 00:30:55;;;;;;;5.56;5.07;;;;;;;16.35;38.14;101398.20;456588;114;922813;-71
2022/09/03 00:32:05;;;;;;;7.69;5.81;;;;;;;16.35;38.14;101396.30;462866;114;923064;-70
2022/09/03 00:33:12;;;;;;;6.37;5.71;;;;;;;16.35;38.15;101395.45;464894;113;922507;-71
2022/09/03 00:34:25;;;;;;;6.77;5.82;;;;;;;16.34;38.17;101399.27;465077;112;923024;-71
2022/09/03 00:35:38;;;;;;;8.09;6.21;;;;;;;16.34;38.15;101410.28;455348;116;922646;-71
2022/09/03 00:36:42;;;;;;;5.95;5.40;;;;;;;16.32;38.17;101410.50;459749;115;922994;-71
2022/09/03 00:37:46;;;;;;;9.01;6.06;;;;;;;16.32;38.18;101417.95;461145;115;923014;-71
2022/09/03 00:38:50;;;;;;;6.84;6.11;;;;;;;16.29;38.21;101419.23;461226;115;924481;-71
2022/09/03 00:39:54;;;;;;;6.37;5.43;;;;;;;16.27;38.20;101416.71;461252;115;922532;-71
2022/09/03 00:41:05;;;;;;;6.47;5.82;;;;;;;16.27;38.24;101426.87;461125;115;930493;-71
2022/09/03 00:42:33;;;;;;;7.51;6.38;;;;;;;16.26;38.21;101419.72;460951;115;922987;-71
2022/09/03 00:43:56;;;;;;;8.78;6.17;;;;;;;16.25;38.23;101423.53;460971;115;930644;-71
2022/09/03 00:45:27;;;;;;;7.12;6.07;;;;;;;16.23;38.20;101432.02;461141;115;922935;-71
2022/09/03 00:46:40;;;;;;;;;;;;;;;16.21;38.24;101427.80;465052;115;922048;-71
2022/09/03 00:48:06;;;;;;;6.57;5.95;;;;;;;16.17;38.23;101421.93;461188;115;922506;-71
2022/09/03 00:49:16;;;;;;;6.39;5.79;;;;;;;16.13;38.30;101417.97;461200;115;922937;-71
2022/09/03 00:50:35;;;;;;;7.18;6.28;;;;;;;16.08;38.42;101412.32;461907;113;922666;-71
2022/09/03 00:51:50;;;;;;;7.36;6.32;;;;;;;16.06;38.44;101417.20;462276;114;922859;-72
2022/09/03 00:53:03;;;;;;;8.83;6.32;;;;;;;16.05;38.48;101420.17;463438;114;923104;-72
2022/09/03 00:54:28;;;;;;;8.17;6.17;;;;;;;16.04;38.47;101413.02;460361;115;923024;-71
2022/09/03 00:55:46;;;;;;;7.31;5.26;;;;;;;16.04;38.57;101415.77;466835;113;922942;-71
2022/09/03 00:57:13;;;;;;;6.98;6.34;;;;;;;16.01;38.53;101417.05;468910;113;923191;-72
2022/09/03 00:58:22;;;;;;;6.54;5.77;;;;;;;16.01;38.53;101418.96;467994;113;923065;-72
2022/09/03 00:59:58;;;;;;;6.94;6.34;;;;;;;16.00;38.60;101420.87;460803;115;922540;-71
2022/09/03 01:01:05;;;;;;;7.10;6.18;;;;;;;15.99;38.59;101430.19;461148;115;922530;-72
2022/09/03 01:02:30;;;;;;;8.44;7.42;;;;;;;15.99;38.63;101440.37;460959;115;923203;-72
2022/09/03 01:03:44;;;;;;;8.27;7.23;;;;;;;15.99;38.78;101437.63;461167;115;922571;-71
2022/09/03 01:04:59;;;;;;;9.28;8.34;;;;;;;15.98;38.73;101445.03;460940;115;922925;-72
2022/09/03 01:06:06;;;;;;;11.07;9.21;;;;;;;15.98;38.81;101444.20;450871;115;922986;-71
2022/09/03 01:07:32;;;;;;;11.15;9.81;;;;;;;15.95;38.74;101445.48;461063;115;922572;-71
2022/09/03 01:09:00;;;;;;;11.91;10.26;;;;;;;15.95;38.83;101444.63;461132;115;923090;-70
2022/09/03 01:10:16;;;;;;;10.81;9.72;;;;;;;15.94;38.88;101442.95;461139;115;922736;-70
2022/09/03 01:11:59;;;;;;;11.78;10.59;;;;;;;15.92;38.89;101437.70;461182;115;922592;-71
2022/09/03 01:13:08;;;;;;;11.37;10.29;;;;;;;15.91;39.04;101441.52;461171;115;923054;-71
2022/09/03 01:14:39;;;;;;;11.59;10.24;;;;;;;15.87;39.09;101437.55;461027;115;922569;-71
2022/09/03 01:15:55;;;;;;;11.10;10.09;;;;;;;15.85;39.07;101436.92;461032;115;922766;-72
2022/09/03 01:17:20;;;;;;;11.34;10.06;;;;;;;15.82;39.10;101440.14;453256;117;923005;-72
2022/09/03 01:18:36;;;;;;;11.49;10.31;;;;;;;15.80;39.19;101436.77;453399;117;922629;-72
2022/09/03 01:19:50;;;;;;;11.16;9.96;;;;;;;15.78;39.24;101430.65;461062;115;923289;-72
2022/09/03 01:21:06;;;;;;;11.17;10.12;;;;;;;15.75;39.34;101420.97;460811;115;923124;-72
2022/09/03 01:22:47;;;;;;;10.54;9.26;;;;;;;15.74;39.47;101423.93;461317;115;922713;-72
2022/09/03 01:24:22;;;;;;;12.04;9.71;;;;;;;15.73;39.46;101422.25;461265;115;923010;-72
2022/09/03 01:25:53;;;;;;;11.05;8.84;;;;;;;15.71;39.59;101424.41;461291;115;923568;-72
2022/09/03 01:27:06;;;;;;;9.36;8.45;;;;;;;15.69;39.69;101426.53;461343;115;922612;-71
2022/09/03 01:28:26;;;;;;;9.36;8.39;;;;;;;15.67;39.69;101434.16;460249;115;923290;-72
2022/09/03 01:29:52;;;;;;;8.97;8.19;;;;;;;15.65;39.75;101433.56;461453;113;922582;-72
2022/09/03 01:31:02;;;;;;;8.60;7.77;;;;;;;15.64;39.77;101438.22;465521;113;922999;-73
2022/09/03 01:32:12;;;;;;;9.13;8.21;;;;;;;15.65;39.78;101439.06;462134;114;922494;-72
2022/09/03 01:33:43;;;;;;;8.80;7.90;;;;;;;15.65;39.82;101439.06;462097;114;923068;-71
2022/09/03 01:35:11;;;;;;;8.05;7.30;;;;;;;15.65;39.85;101433.56;461817;114;930611;-71
2022/09/03 01:36:21;;;;;;;8.37;6.92;;;;;;;15.64;39.95;101438.22;462225;114;930508;-71
2022/09/03 01:37:47;;;;;;;8.42;6.36;;;;;;;15.65;40.07;101433.56;462239;114;922305;-71
2022/09/03 01:38:53;;;;;;;7.47;6.84;;;;;;;15.64;40.12;101440.12;462286;114;923083;-71
2022/09/03 01:40:09;;;;;;;6.00;5.44;;;;;;;15.65;40.17;101444.56;462300;114;922896;-71
2022/09/03 01:43:36;;;;;;;10.11;5.98;;;;;;;15.67;40.05;101436.91;436146;121;923234;-70
2022/09/03 01:45:13;;;;;;;6.04;5.34;;;;;;;15.66;40.09;101432.47;457186;114;922519;-71
2022/09/03 01:46:23;;;;;;;5.96;5.46;;;;;;;15.65;40.01;101436.31;462263;114;923105;-71
2022/09/03 01:47:51;;;;;;;6.14;4.90;;;;;;;15.63;40.00;101436.53;461277;115;922554;-70
2022/09/03 01:49:19;;;;;;;5.48;5.01;;;;;;;15.64;40.02;101440.12;461296;115;922571;-72
2022/09/03 01:50:46;;;;;;;5.61;5.01;;;;;;;15.62;39.95;101437.59;461117;115;922483;-72
2022/09/03 01:52:02;;;;;;;5.59;4.79;;;;;;;15.61;40.06;101433.16;461306;115;922941;-71
2022/09/03 01:53:37;;;;;;;5.82;5.32;;;;;;;15.60;40.01;101439.71;460906;115;923030;-71
2022/09/03 01:54:44;;;;;;;5.36;4.31;;;;;;;15.61;40.05;101440.55;461321;115;922982;-71
2022/09/03 01:56:09;;;;;;;6.82;4.64;;;;;;;15.59;40.08;101435.31;461338;115;923006;-72
2022/09/03 01:57:38;;;;;;;4.54;4.14;;;;;;;15.59;40.07;101443.55;461390;115;922531;-71
2022/09/03 01:58:59;;;;;;;4.49;4.05;;;;;;;15.60;40.06;101449.90;464323;113;922499;-71
2022/09/03 02:00:07;;;;;;;5.49;4.78;;;;;;;15.58;40.23;101447.37;466732;113;923019;-70
2022/09/03 02:01:19;;;;;;;5.10;4.52;;;;;;;15.58;40.21;101449.27;466940;113;923035;-72
2022/09/03 02:02:25;;;;;;;5.06;4.04;;;;;;;15.57;40.22;101448.42;466474;113;922555;-71
2022/09/03 02:03:38;;;;;;;4.93;4.48;;;;;;;15.57;40.28;101451.17;466931;113;923355;-71
2022/09/03 02:05:08;;;;;;;5.31;3.91;;;;;;;15.57;40.33;101456.67;466889;113;922928;-71
2022/09/03 02:06:11;;;;;;;4.57;4.18;;;;;;;15.56;40.41;101446.73;466923;113;922566;-71
2022/09/03 02:07:14;;;;;;;4.49;4.08;;;;;;;15.57;40.38;101453.92;467048;113;922570;-72
2022/09/03 02:08:19;;;;;;;5.09;4.69;;;;;;;15.57;40.40;101453.08;467089;113;923029;-72
2022/09/03 02:09:23;;;;;;;7.83;4.63;;;;;;;15.57;40.45;101455.83;466949;113;922467;-71
2022/09/03 02:10:38;;;;;;;4.56;4.18;;;;;;;15.56;40.48;101454.98;466744;113;930506;-72
2022/09/03 02:11:42;;;;;;;4.98;3.73;;;;;;;15.57;40.58;101464.08;454451;113;922589;-72
2022/09/03 02:12:52;;;;;;;5.24;4.47;;;;;;;15.57;40.58;101464.92;466948;113;922497;-72
2022/09/03 02:13:58;;;;;;;6.33;4.57;;;;;;;15.56;40.60;101457.73;466815;113;930491;-70
2022/09/03 02:15:03;;;;;;;4.97;4.39;;;;;;;15.57;40.58;101469.58;466931;113;922761;-71
2022/09/03 02:16:13;;;;;;;4.63;4.21;;;;;;;15.56;40.68;101462.39;463557;114;922818;-71
2022/09/03 02:17:17;;;;;;;4.90;4.39;;;;;;;15.56;40.68;101470.64;463801;114;922735;-71
2022/09/03 02:18:24;;;;;;;5.66;4.62;;;;;;;15.56;40.66;101465.14;463601;114;923102;-71
2022/09/03 02:19:29;;;;;;;5.39;4.29;;;;;;;15.56;40.70;101468.73;462913;114;922571;-71
2022/09/03 02:20:33;;;;;;;5.17;4.68;;;;;;;15.56;40.69;101471.48;455550;116;923058;-71
2022/09/03 02:21:39;;;;;;;7.10;5.43;;;;;;;15.56;40.66;101465.98;455708;116;923090;-71
2022/09/03 02:22:42;;;;;;;5.47;4.76;;;;;;;15.55;40.62;101478.04;455474;116;930485;-71
2022/09/03 02:23:47;;;;;;;6.66;5.58;;;;;;;15.55;40.69;101471.73;455738;116;923309;-71
2022/09/03 02:24:50;;;;;;;5.24;4.70;;;;;;;15.53;40.64;101474.70;455541;116;922971;-71
2022/09/03 02:26:00;;;;;;;5.56;5.07;;;;;;;15.53;40.66;101479.34;455627;116;923192;-72
2022/09/03 02:27:03;;;;;;;6.47;5.15;;;;;;;15.53;40.71;101482.94;455507;116;930634;-72
2022/09/03 02:28:07;;;;;;;6.39;5.30;;;;;;;15.53;40.72;101476.59;455766;116;923355;-70
2022/09/03 02:29:15;;;;;;;5.67;5.04;;;;;;;15.52;40.72;101481.25;452936;116;922591;-73
2022/09/03 02:30:19;;;;;;;6.83;5.42;;;;;;;15.52;40.82;101472.16;455560;116;922638;-71
2022/09/03 02:31:22;;;;;;;7.11;6.01;;;;;;;15.51;40.79;101471.28;454394;116;922537;-71
2022/09/03 02:32:25;;;;;;;7.35;6.43;;;;;;;15.51;40.83;101482.28;453591;117;923416;-71
2022/09/03 02:33:31;;;;;;;9.96;7.46;;;;;;;15.51;40.82;101484.19;453631;117;922788;-71
2022/09/03 02:34:34;;;;;;;8.57;7.58;;;;;;;15.50;40.80;101483.34;454047;116;923026;-71
2022/09/03 02:35:39;;;;;;;9.18;7.64;;;;;;;15.49;40.75;101483.59;454227;116;922917;-71
2022/09/03 02:36:45;;;;;;;9.92;8.47;;;;;;;15.48;40.68;101484.65;454031;116;923013;-71
2022/09/03 02:37:48;;;;;;;8.13;7.33;;;;;;;15.47;40.68;101482.96;454095;116;923234;-72
2022/09/03 02:38:52;;;;;;;9.21;7.94;;;;;;;15.44;40.68;101475.99;454156;116;922834;-72
2022/09/03 02:39:55;;;;;;;9.29;7.83;;;;;;;15.41;40.65;101474.55;454173;116;930508;-71
2022/09/03 02:40:58;;;;;;;8.88;7.91;;;;;;;15.39;40.65;101468.42;454303;116;922986;-71
2022/09/03 02:42:01;;;;;;;11.06;8.45;;;;;;;15.37;40.67;101466.98;454349;116;923028;-71
2022/09/03 02:43:08;;;;;;;9.54;8.40;;;;;;;15.35;40.69;101467.20;454982;116;923037;-71
2022/09/03 02:44:24;;;;;;;8.37;7.44;;;;;;;15.33;40.82;101473.98;455433;115;922735;-71
2022/09/03 02:45:28;;;;;;;13.12;8.43;;;;;;;15.31;40.94;101471.48;454199;116;923083;-72
2022/09/03 02:46:56;;;;;;;11.07;8.46;;;;;;;15.30;40.91;101480.78;455621;116;922505;-71
2022/09/03 02:47:59;;;;;;;10.12;7.93;;;;;;;15.29;40.96;101468.10;439629;120;930853;-72
2022/09/03 02:49:03;;;;;;;8.99;7.97;;;;;;;15.28;41.03;101471.06;446365;116;922870;-71
2022/09/03 02:50:06;;;;;;;8.98;7.54;;;;;;;15.26;41.06;101474.05;455689;116;926244;-71
2022/09/03 02:51:09;;;;;;;8.68;7.66;;;;;;;15.24;41.05;101464.34;455696;116;922517;-71
2022/09/03 02:52:15;;;;;;;9.34;7.74;;;;;;;15.24;41.05;101464.34;455217;116;930522;-71
2022/09/03 02:53:19;;;;;;;7.94;7.11;;;;;;;15.24;41.22;101470.68;455633;115;922514;-71
2022/09/03 02:54:22;;;;;;;8.86;7.97;;;;;;;15.23;41.25;101477.23;455705;116;923298;-71
2022/09/03 02:55:25;;;;;;;10.80;7.11;;;;;;;15.23;41.25;101474.48;455714;116;922565;-72
2022/09/03 02:56:28;;;;;;;7.63;6.94;;;;;;;15.23;41.24;101476.39;455743;116;923395;-72
2022/09/03 02:57:31;;;;;;;8.68;7.04;;;;;;;15.21;41.35;101473.05;455771;116;922485;-72
2022/09/03 02:58:34;;;;;;;11.53;7.49;;;;;;;15.20;41.35;101476.85;455781;116;922575;-71
2022/09/03 02:59:38;;;;;;;8.21;7.36;;;;;;;15.18;41.31;101474.31;455793;116;922528;-72
2022/09/03 03:00:41;;;;;;;8.56;6.79;;;;;;;15.18;41.31;101479.81;455661;116;923662;-72
2022/09/03 03:01:44;;;;;;;8.05;7.23;;;;;;;15.17;41.37;101474.53;455766;116;923106;-72
2022/09/03 03:02:51;;;;;;;6.82;6.15;;;;;;;15.18;41.41;101488.05;455615;116;922925;-72
2022/09/03 03:03:54;;;;;;;8.91;7.56;;;;;;;15.16;41.42;101473.69;455685;116;922559;-72
2022/09/03 03:04:57;;;;;;;6.86;6.26;;;;;;;15.16;41.40;101481.93;455690;116;930676;-72
2022/09/03 03:06:03;;;;;;;7.17;6.39;;;;;;;15.16;41.43;101476.44;455768;116;923058;-72
2022/09/03 03:07:06;;;;;;;7.31;6.53;;;;;;;15.16;41.44;101479.19;455583;116;922648;-72
2022/09/03 03:08:13;;;;;;;7.75;6.15;;;;;;;15.16;41.44;101479.19;455778;116;923062;-72
2022/09/03 03:09:16;;;;;;;8.57;6.51;;;;;;;15.15;41.52;101483.02;455484;116;922940;-72
2022/09/03 03:10:20;;;;;;;11.66;6.43;;;;;;;15.14;41.47;101481.33;455497;116;922572;-72
2022/09/03 03:11:25;;;;;;;7.11;6.40;;;;;;;15.15;41.46;101476.69;455731;116;923043;-72
2022/09/03 03:12:29;;;;;;;6.97;6.00;;;;;;;15.16;41.50;101470.13;455614;116;923069;-72
2022/09/03 03:13:32;;;;;;;7.69;6.38;;;;;;;15.15;41.60;101472.03;455583;116;930502;-72
2022/09/03 03:14:36;;;;;;;9.45;6.91;;;;;;;15.16;41.50;101473.69;455615;116;923200;-72
2022/09/03 03:15:41;;;;;;;9.09;6.89;;;;;;;15.17;41.37;101469.04;460629;114;923120;-72
2022/09/03 03:16:44;;;;;;;6.76;6.09;;;;;;;15.17;41.37;101469.04;463753;114;922923;-71
2022/09/03 03:17:47;;;;;;;7.99;6.69;;;;;;;15.18;41.61;101476.22;463725;114;930941;-72
2022/09/03 03:18:51;;;;;;;7.22;6.45;;;;;;;15.17;41.51;101464.39;463769;114;922556;-72
2022/09/03 03:19:54;;;;;;;8.84;7.74;;;;;;;15.18;41.56;101463.33;463713;114;923022;-71
2022/09/03 03:21:03;;;;;;;8.24;6.93;;;;;;;15.18;41.59;101468.83;463748;113;930472;-70
2022/09/03 03:22:06;;;;;;;7.37;6.43;;;;;;;15.19;41.53;101466.92;463634;114;923046;-71
2022/09/03 03:23:09;;;;;;;7.82;6.37;;;;;;;15.19;41.52;101467.77;463828;114;922879;-71
2022/09/03 03:24:13;;;;;;;8.35;7.03;;;;;;;15.19;41.57;101470.52;463777;114;922911;-72
2022/09/03 03:25:16;;;;;;;10.26;6.89;;;;;;;15.20;41.59;101469.45;463827;114;923117;-72
2022/09/03 03:26:21;;;;;;;7.69;6.80;;;;;;;15.21;41.60;101478.54;463778;114;922433;-72
2022/09/03 03:27:24;;;;;;;8.04;6.55;;;;;;;15.20;41.69;101480.44;463636;114;930538;-72
2022/09/03 03:28:27;;;;;;;9.27;6.64;;;;;;;15.21;41.63;101476.64;463830;113;922551;-72
2022/09/03 03:29:30;;;;;;;7.91;6.44;;;;;;;15.20;41.68;101483.19;463819;114;923017;-71
2022/09/03 03:30:37;;;;;;;6.51;5.78;;;;;;;15.21;41.68;101484.03;463807;114;922920;-71
2022/09/03 03:31:40;;;;;;;6.03;4.97;;;;;;;15.21;41.70;101487.63;461534;115;923057;-71
2022/09/03 03:32:43;;;;;;;6.19;5.42;;;;;;;15.22;41.76;101482.95;461778;115;922612;-72
2022/09/03 03:33:51;;;;;;;7.20;5.02;;;;;;;15.22;41.64;101486.53;462226;114;923148;-72
2022/09/03 03:34:54;;;;;;;8.55;6.02;;;;;;;15.22;41.69;101483.79;463630;114;922979;-72
2022/09/03 03:35:57;;;;;;;6.04;5.43;;;;;;;15.22;41.69;101489.28;463837;114;922548;-70
2022/09/03 03:37:00;;;;;;;7.43;6.01;;;;;;;15.21;41.77;101482.13;463845;114;923042;-71
2022/09/03 03:38:04;;;;;;;5.84;5.17;;;;;;;15.21;41.78;101476.64;463806;114;922534;-71
2022/09/03 03:39:07;;;;;;;10.05;5.09;;;;;;;15.21;41.80;101464.80;461865;114;923075;-72
2022/09/03 03:40:13;;;;;;;5.08;4.57;;;;;;;15.23;41.79;101473.64;454021;116;922521;-71
2022/09/03 03:41:21;;;;;;;6.50;5.06;;;;;;;15.22;41.83;101475.55;454200;116;922524;-71
2022/09/03 03:42:24;;;;;;;7.96;5.03;;;;;;;15.24;41.91;101472.58;454022;116;930928;-71
2022/09/03 03:43:28;;;;;;;5.18;4.69;;;;;;;15.24;41.83;101473.42;454277;116;922597;-71
2022/09/03 03:44:31;;;;;;;7.51;4.53;;;;;;;15.25;41.86;101474.27;454297;116;922885;-71
2022/09/03 03:45:34;;;;;;;7.44;5.59;;;;;;;15.27;41.81;101469.41;454322;116;922652;-71
2022/09/03 03:46:40;;;;;;;6.59;4.65;;;;;;;15.28;41.81;101479.30;446396;119;922675;-70
2022/09/03 03:47:43;;;;;;;8.72;7.67;;;;;;;15.29;41.81;101484.59;454191;116;922978;-71
2022/09/03 03:48:47;;;;;;;7.42;6.83;;;;;;;15.30;41.85;101491.77;454208;116;930619;-71
2022/09/03 03:49:51;;;;;;;6.63;5.38;;;;;;;15.31;41.87;101487.97;454110;116;923050;-72
2022/09/03 03:50:54;;;;;;;9.63;5.44;;;;;;;15.33;41.86;101490.47;454265;116;923115;-71
2022/09/03 03:51:57;;;;;;;7.01;5.50;;;;;;;15.35;41.83;101491.09;454240;116;922515;-72
2022/09/03 03:53:00;;;;;;;6.60;5.33;;;;;;;15.35;41.76;101496.59;454242;116;922591;-72
2022/09/03 03:54:04;;;;;;;7.06;5.46;;;;;;;15.36;41.73;101496.38;454116;116;922538;-72
2022/09/03 03:55:08;;;;;;;7.48;5.61;;;;;;;15.37;41.76;101495.31;454165;116;922693;-72
2022/09/03 03:56:14;;;;;;;7.01;5.94;;;;;;;15.38;41.70;101499.72;454180;116;922528;-71
2022/09/03 03:57:22;;;;;;;6.07;5.47;;;;;;;15.39;41.73;101495.91;454103;116;922649;-71
2022/09/03 03:58:23;;;;;;;7.18;5.83;;;;;;;15.40;41.64;101502.25;453969;116;923124;-71
2022/09/03 03:59:26;;;;;;;6.12;5.40;;;;;;;15.41;41.66;101498.44;463811;114;922954;-71
2022/09/03 04:00:29;;;;;;;7.37;5.28;;;;;;;15.41;41.63;101499.29;463717;113;923033;-71
2022/09/03 04:01:32;;;;;;;6.80;5.83;;;;;;;15.42;41.54;101495.48;455767;115;922629;-71
2022/09/03 04:02:36;;;;;;;6.21;5.26;;;;;;;15.43;41.54;101502.66;463818;113;922716;-70
2022/09/03 04:03:41;;;;;;;7.59;5.70;;;;;;;15.45;41.48;101499.67;455553;115;922969;-70
2022/09/03 04:04:44;;;;;;;5.54;4.59;;;;;;;15.47;41.50;101493.95;463694;114;922514;-71
2022/09/03 04:05:55;;;;;;;5.48;4.70;;;;;;;15.47;41.42;101489.30;455721;115;930748;-71
2022/09/03 04:06:59;;;;;;;5.38;4.82;;;;;;;15.48;41.39;101487.40;455417;115;922922;-70
2022/09/03 04:08:02;;;;;;;5.69;5.18;;;;;;;15.49;41.45;101486.34;455834;116;922550;-71
2022/09/03 04:09:06;;;;;;;5.51;4.99;;;;;;;15.50;41.37;101487.99;455709;116;923123;-71
2022/09/03 04:10:09;;;;;;;6.50;4.77;;;;;;;15.49;41.36;101483.59;463815;113;922991;-70
2022/09/03 04:11:15;;;;;;;5.11;4.61;;;;;;;15.50;41.36;101479.75;454608;116;922560;-70
2022/09/03 04:12:18;;;;;;;5.42;4.31;;;;;;;15.51;41.45;101478.69;458976;115;922993;-71
2022/09/03 04:13:22;;;;;;;6.18;5.03;;;;;;;15.51;41.36;101482.28;459164;115;923048;-71
2022/09/03 04:14:26;;;;;;;5.19;4.61;;;;;;;15.52;41.36;101477.66;459188;115;922501;-71
2022/09/03 04:15:29;;;;;;;5.15;4.66;;;;;;;15.52;41.34;101489.50;456654;115;922497;-71
2022/09/03 04:16:32;;;;;;;7.79;5.19;;;;;;;15.52;41.45;101481.25;453547;117;923413;-69
2022/09/03 04:17:35;;;;;;;5.08;4.42;;;;;;;15.53;41.38;101485.69;453647;117;923073;-70
2022/09/03 04:18:39;;;;;;;7.01;4.67;;;;;;;15.55;41.33;101486.28;453603;117;922556;-72
2022/09/03 04:19:42;;;;;;;5.96;4.31;;;;;;;15.55;41.43;101488.22;453509;117;922575;-71
2022/09/03 04:20:45;;;;;;;5.90;4.39;;;;;;;15.57;41.36;101483.32;452417;116;922795;-71
2022/09/03 04:21:48;;;;;;;6.19;4.46;;;;;;;15.58;41.38;101487.75;450834;117;922952;-72
2022/09/03 04:22:51;;;;;;;4.33;3.62;;;;;;;15.60;41.42;101493.88;450879;117;922576;-71
2022/09/03 04:23:55;;;;;;;5.81;3.79;;;;;;;15.61;41.40;101487.29;450801;117;922694;-71
2022/09/03 04:24:58;;;;;;;4.24;3.47;;;;;;;15.61;41.43;101482.63;450747;117;923077;-71
2022/09/03 04:26:02;;;;;;;4.20;3.49;;;;;;;15.62;41.44;101486.23;450829;117;923008;-71
2022/09/03 04:27:07;;;;;;;3.68;3.37;;;;;;;15.64;41.42;101484.11;450615;117;922950;-70
2022/09/03 04:28:11;;;;;;;4.82;3.69;;;;;;;15.65;41.40;101489.39;450754;117;922492;-71
2022/09/03 04:29:15;;;;;;;4.67;3.66;;;;;;;15.67;41.40;101486.39;450698;117;930487;-70
2022/09/03 04:30:20;;;;;;;3.94;3.23;;;;;;;15.68;41.38;101488.92;455074;116;923061;-71
2022/09/03 04:31:23;;;;;;;5.51;3.55;;;;;;;15.69;41.36;101487.86;455624;116;922630;-71
2022/09/03 04:33:50;;;;;;;3.87;2.77;;;;;;;15.73;41.41;101488.23;454547;115;922839;-71
2022/09/03 04:34:53;;;;;;;4.32;3.35;;;;;;;15.74;41.29;101484.42;455676;116;922606;-71
2022/09/03 04:36:16;;;;;;;5.59;2.97;;;;;;;15.75;41.24;101494.36;454259;116;930755;-72
2022/09/03 04:37:19;;;;;;;4.13;2.87;;;;;;;15.75;41.16;101491.61;463245;114;923003;-72
2022/09/03 04:38:23;;;;;;;5.39;3.87;;;;;;;15.74;41.10;101496.27;463465;114;922900;-72
2022/09/03 04:39:26;;;;;;;4.37;3.01;;;;;;;15.75;41.11;101503.45;455123;116;922589;-72
2022/09/03 04:40:30;;;;;;;4.38;3.61;;;;;;;15.75;41.11;101495.20;463313;114;922554;-72
2022/09/03 04:41:33;;;;;;;4.20;3.80;;;;;;;15.77;41.05;101497.70;463450;114;922516;-71
2022/09/03 04:42:36;;;;;;;4.51;3.01;;;;;;;15.79;41.07;101492.83;455200;116;923154;-72
2022/09/03 04:43:44;;;;;;;3.85;2.86;;;;;;;15.80;41.07;101491.77;463448;114;922495;-72
2022/09/03 04:44:45;;;;;;;4.81;3.16;;;;;;;15.81;41.13;101497.05;463023;114;923128;-72
2022/09/03 04:45:48;;;;;;;4.69;2.87;;;;;;;15.84;41.09;101492.98;463442;114;922517;-70
2022/09/03 04:46:52;;;;;;;3.94;2.68;;;;;;;15.86;41.04;101499.11;455212;116;923044;-71
2022/09/03 04:47:59;;;;;;;4.36;2.83;;;;;;;15.89;41.11;101497.80;463371;114;923014;-71
2022/09/03 04:49:02;;;;;;;4.77;3.30;;;;;;;15.91;41.04;101502.02;463150;114;930516;-71
2022/09/03 04:50:06;;;;;;;4.45;3.39;;;;;;;15.93;41.01;101499.05;455128;116;922542;-70
2022/09/03 04:51:13;;;;;;;4.88;3.08;;;;;;;15.94;41.05;101501.55;463260;114;925516;-71
2022/09/03 04:52:16;;;;;;;5.47;3.36;;;;;;;15.96;41.03;101499.42;463234;114;922593;-72
2022/09/03 04:53:20;;;;;;;5.61;3.24;;;;;;;16.00;41.11;101502.55;455212;116;922784;-72
2022/09/03 04:54:23;;;;;;;4.32;2.87;;;;;;;16.00;41.06;101503.39;463322;114;923034;-73
2022/09/03 04:55:33;;;;;;;3.28;2.60;;;;;;;16.02;41.01;101497.67;462727;114;930562;-70
2022/09/03 04:56:39;;;;;;;4.62;3.24;;;;;;;16.04;40.99;101509.30;454943;116;923051;-73
2022/09/03 04:57:43;;;;;;;3.99;2.69;;;;;;;16.04;41.01;101507.39;463175;114;922545;-71
2022/09/03 04:58:47;;;;;;;4.27;3.22;;;;;;;16.05;41.04;101500.80;458823;114;922722;-71
2022/09/03 04:59:52;;;;;;;3.39;2.91;;;;;;;16.08;41.09;101502.27;450103;117;923115;-71
2022/09/03 05:00:56;;;;;;;8.61;2.81;;;;;;;16.10;41.12;101500.95;450274;117;922572;-71
2022/09/03 05:01:59;;;;;;;7.76;3.02;;;;;;;16.12;41.12;101501.57;450215;117;922767;-71
2022/09/03 05:03:04;;;;;;;6.88;2.56;;;;;;;16.14;41.11;101485.69;450123;117;930529;-72
2022/09/03 05:04:07;;;;;;;4.26;2.55;;;;;;;16.15;41.07;101490.09;450185;117;922541;-72
2022/09/03 05:05:10;;;;;;;5.66;2.86;;;;;;;16.17;41.07;101493.47;450217;117;923054;-72
2022/09/03 05:06:16;;;;;;;4.50;2.31;;;;;;;16.18;41.06;101494.31;450202;117;923103;-72
2022/09/03 05:07:19;;;;;;;3.31;1.98;;;;;;;16.19;41.11;101496.84;450178;117;923127;-72
2022/09/03 05:08:25;;;;;;;4.14;2.19;;;;;;;16.21;41.04;101489.17;450077;117;923568;-71
2022/09/03 05:09:28;;;;;;;2.97;1.80;;;;;;;16.24;41.02;101488.73;450238;117;922585;-72
2022/09/03 05:10:32;;;;;;;1.98;1.61;;;;;;;16.25;41.02;101490.42;450237;117;922527;-71
2022/09/03 05:11:35;;;;;;;3.54;1.52;;;;;;;16.28;40.95;101478.09;450264;117;923070;-72
2022/09/03 05:12:39;;;;;;;2.36;1.72;;;;;;;16.29;40.87;101488.04;450318;117;922926;-71
2022/09/03 05:13:42;;;;;;;4.14;1.46;;;;;;;16.31;40.84;101482.31;450373;117;922535;-72
2022/09/03 05:14:45;;;;;;;3.44;1.53;;;;;;;16.32;40.76;101489.50;450398;117;922623;-71
2022/09/03 05:15:48;;;;;;;2.24;1.34;;;;;;;16.33;40.72;101486.50;451429;117;922571;-71
2022/09/03 05:16:51;;;;;;;4.36;1.19;;;;;;;16.34;40.65;101485.44;451794;117;922495;-71
2022/09/03 05:17:57;;;;;;;2.36;1.28;;;;;;;16.35;40.48;101489.03;451672;117;923057;-72
2022/09/03 05:19:00;;;;;;;1.98;1.11;;;;;;;16.35;40.35;101489.03;459412;115;923046;-72